sensor_id;sensor_type;location;lat;lon;timestamp;P1;durP1;ratioP1;P2;durP2;ratioP2
45065;SDS011;30830;53.704;10.004;2024-03-08T00:02:22;20.25;;;12.00;;
45065;SDS011;30830;53.704;10.004;2024-03-08T00:04:48;18.92;;;11.30;;
45065;SDS011;30830;53.704;10.004;2024-03-08T00:07:14;20.52;;;12.65;;
45065;SDS011;30830;53.704;10.004;2024-03-08T00:09:40;19.52;;;12.60;;
45065;SDS011;30830;53.704;10.004;2024-03-08T00:12:06;19.73;;;11.93;;
45065;SDS011;30830;53.704;10.004;2024-03-08T00:14:31;21.38;;;12.85;;
45065;SDS011;30830;53.704;10.004;2024-03-08T00:16:58;21.55;;;12.43;;
45065;SDS011;30830;53.704;10.004;2024-03-08T00:19:23;16.75;;;10.93;;
45065;SDS011;30830;53.704;10.004;2024-03-08T00:21:49;20.48;;;12.57;;
45065;SDS011;30830;53.704;10.004;2024-03-08T00:24:15;17.42;;;11.38;;
45065;SDS011;30830;53.704;10.004;2024-03-08T00:26:40;20.75;;;12.23;;
45065;SDS011;30830;53.704;10.004;2024-03-08T00:29:08;17.63;;;12.10;;
45065;SDS011;30830;53.704;10.004;2024-03-08T00:31:33;22.42;;;11.93;;
45065;SDS011;30830;53.704;10.004;2024-03-08T00:34:00;18.80;;;11.93;;
45065;SDS011;30830;53.704;10.004;2024-03-08T00:36:26;17.77;;;11.10;;
45065;SDS011;30830;53.704;10.004;2024-03-08T00:38:51;18.70;;;11.38;;
45065;SDS011;30830;53.704;10.004;2024-03-08T00:41:17;22.90;;;12.98;;
45065;SDS011;30830;53.704;10.004;2024-03-08T00:43:43;23.98;;;13.02;;
45065;SDS011;30830;53.704;10.004;2024-03-08T00:46:08;19.67;;;11.70;;
45065;SDS011;30830;53.704;10.004;2024-03-08T00:48:34;21.65;;;11.40;;
45065;SDS011;30830;53.704;10.004;2024-03-08T00:51:02;19.35;;;12.18;;
45065;SDS011;30830;53.704;10.004;2024-03-08T00:53:28;24.35;;;11.65;;
45065;SDS011;30830;53.704;10.004;2024-03-08T00:55:54;20.63;;;13.25;;
45065;SDS011;30830;53.704;10.004;2024-03-08T00:58:20;20.77;;;13.05;;
45065;SDS011;30830;53.704;10.004;2024-03-08T01:00:46;17.90;;;12.02;;
45065;SDS011;30830;53.704;10.004;2024-03-08T01:03:11;20.15;;;12.20;;
45065;SDS011;30830;53.704;10.004;2024-03-08T01:05:37;20.05;;;12.38;;
45065;SDS011;30830;53.704;10.004;2024-03-08T01:08:02;20.52;;;11.60;;
45065;SDS011;30830;53.704;10.004;2024-03-08T01:10:28;22.02;;;12.30;;
45065;SDS011;30830;53.704;10.004;2024-03-08T01:12:54;19.80;;;12.27;;
45065;SDS011;30830;53.704;10.004;2024-03-08T01:15:21;18.90;;;11.40;;
45065;SDS011;30830;53.704;10.004;2024-03-08T01:17:48;18.63;;;11.73;;
45065;SDS011;30830;53.704;10.004;2024-03-08T01:20:13;17.33;;;12.02;;
45065;SDS011;30830;53.704;10.004;2024-03-08T01:22:40;19.02;;;10.80;;
45065;SDS011;30830;53.704;10.004;2024-03-08T01:25:06;18.83;;;12.73;;
45065;SDS011;30830;53.704;10.004;2024-03-08T01:27:33;19.83;;;11.32;;
45065;SDS011;30830;53.704;10.004;2024-03-08T01:30:00;19.20;;;11.70;;
45065;SDS011;30830;53.704;10.004;2024-03-08T01:32:26;22.92;;;12.50;;
45065;SDS011;30830;53.704;10.004;2024-03-08T01:34:51;21.67;;;12.35;;
45065;SDS011;30830;53.704;10.004;2024-03-08T01:37:17;17.73;;;11.85;;
45065;SDS011;30830;53.704;10.004;2024-03-08T01:39:42;21.10;;;12.45;;
45065;SDS011;30830;53.704;10.004;2024-03-08T01:42:08;23.35;;;13.25;;
45065;SDS011;30830;53.704;10.004;2024-03-08T01:44:33;22.70;;;12.73;;
45065;SDS011;30830;53.704;10.004;2024-03-08T01:46:59;18.38;;;12.00;;
45065;SDS011;30830;53.704;10.004;2024-03-08T01:49:25;18.45;;;12.65;;
45065;SDS011;30830;53.704;10.004;2024-03-08T01:51:52;16.73;;;11.77;;
45065;SDS011;30830;53.704;10.004;2024-03-08T01:54:18;24.77;;;12.75;;
45065;SDS011;30830;53.704;10.004;2024-03-08T01:56:44;19.80;;;11.18;;
45065;SDS011;30830;53.704;10.004;2024-03-08T01:59:11;19.48;;;12.27;;
45065;SDS011;30830;53.704;10.004;2024-03-08T02:01:37;24.77;;;13.38;;
45065;SDS011;30830;53.704;10.004;2024-03-08T02:04:03;17.90;;;11.52;;
45065;SDS011;30830;53.704;10.004;2024-03-08T02:06:32;17.58;;;11.85;;
45065;SDS011;30830;53.704;10.004;2024-03-08T02:08:57;20.05;;;12.23;;
45065;SDS011;30830;53.704;10.004;2024-03-08T02:11:23;21.83;;;12.32;;
45065;SDS011;30830;53.704;10.004;2024-03-08T02:13:48;20.02;;;11.82;;
45065;SDS011;30830;53.704;10.004;2024-03-08T02:16:19;25.20;;;13.80;;
45065;SDS011;30830;53.704;10.004;2024-03-08T02:18:46;22.88;;;12.88;;
45065;SDS011;30830;53.704;10.004;2024-03-08T02:21:11;19.65;;;11.93;;
45065;SDS011;30830;53.704;10.004;2024-03-08T02:23:38;20.75;;;12.43;;
45065;SDS011;30830;53.704;10.004;2024-03-08T02:26:05;20.92;;;11.60;;
45065;SDS011;30830;53.704;10.004;2024-03-08T02:28:32;21.17;;;12.80;;
45065;SDS011;30830;53.704;10.004;2024-03-08T02:30:58;23.98;;;12.60;;
45065;SDS011;30830;53.704;10.004;2024-03-08T02:33:24;23.38;;;13.15;;
45065;SDS011;30830;53.704;10.004;2024-03-08T02:35:51;23.13;;;12.93;;
45065;SDS011;30830;53.704;10.004;2024-03-08T02:38:20;19.92;;;12.57;;
45065;SDS011;30830;53.704;10.004;2024-03-08T02:40:48;21.42;;;11.95;;
45065;SDS011;30830;53.704;10.004;2024-03-08T02:43:15;23.42;;;12.50;;
45065;SDS011;30830;53.704;10.004;2024-03-08T02:45:42;21.38;;;12.75;;
45065;SDS011;30830;53.704;10.004;2024-03-08T02:48:09;19.30;;;12.10;;
45065;SDS011;30830;53.704;10.004;2024-03-08T02:50:36;22.88;;;12.45;;
45065;SDS011;30830;53.704;10.004;2024-03-08T02:53:02;22.10;;;12.30;;
45065;SDS011;30830;53.704;10.004;2024-03-08T02:55:28;19.83;;;12.07;;
45065;SDS011;30830;53.704;10.004;2024-03-08T02:57:54;20.08;;;11.55;;
45065;SDS011;30830;53.704;10.004;2024-03-08T03:00:20;17.95;;;11.38;;
45065;SDS011;30830;53.704;10.004;2024-03-08T03:02:47;20.10;;;12.10;;
45065;SDS011;30830;53.704;10.004;2024-03-08T03:05:14;19.25;;;12.05;;
45065;SDS011;30830;53.704;10.004;2024-03-08T03:07:39;21.48;;;13.35;;
45065;SDS011;30830;53.704;10.004;2024-03-08T03:10:05;25.10;;;12.77;;
45065;SDS011;30830;53.704;10.004;2024-03-08T03:12:32;20.88;;;12.35;;
45065;SDS011;30830;53.704;10.004;2024-03-08T03:14:58;23.70;;;12.77;;
45065;SDS011;30830;53.704;10.004;2024-03-08T03:17:24;23.65;;;12.75;;
45065;SDS011;30830;53.704;10.004;2024-03-08T03:19:50;22.02;;;12.10;;
45065;SDS011;30830;53.704;10.004;2024-03-08T03:22:19;17.23;;;12.77;;
45065;SDS011;30830;53.704;10.004;2024-03-08T03:24:45;19.23;;;11.77;;
45065;SDS011;30830;53.704;10.004;2024-03-08T03:27:11;22.67;;;13.02;;
45065;SDS011;30830;53.704;10.004;2024-03-08T03:29:40;21.40;;;11.52;;
45065;SDS011;30830;53.704;10.004;2024-03-08T03:32:10;22.08;;;13.25;;
45065;SDS011;30830;53.704;10.004;2024-03-08T03:34:37;21.52;;;13.07;;
45065;SDS011;30830;53.704;10.004;2024-03-08T03:37:03;18.02;;;12.07;;
45065;SDS011;30830;53.704;10.004;2024-03-08T03:39:29;24.10;;;12.30;;
45065;SDS011;30830;53.704;10.004;2024-03-08T03:41:59;22.45;;;11.70;;
45065;SDS011;30830;53.704;10.004;2024-03-08T03:44:27;19.30;;;12.80;;
45065;SDS011;30830;53.704;10.004;2024-03-08T03:46:53;20.05;;;13.20;;
45065;SDS011;30830;53.704;10.004;2024-03-08T03:49:18;22.52;;;13.48;;
45065;SDS011;30830;53.704;10.004;2024-03-08T03:51:45;17.63;;;11.38;;
45065;SDS011;30830;53.704;10.004;2024-03-08T03:54:11;22.90;;;12.43;;
45065;SDS011;30830;53.704;10.004;2024-03-08T03:56:37;23.10;;;12.35;;
45065;SDS011;30830;53.704;10.004;2024-03-08T03:59:04;20.52;;;12.48;;
45065;SDS011;30830;53.704;10.004;2024-03-08T04:01:31;22.60;;;12.75;;
45065;SDS011;30830;53.704;10.004;2024-03-08T04:03:57;23.33;;;12.55;;
45065;SDS011;30830;53.704;10.004;2024-03-08T04:06:23;21.40;;;11.85;;
45065;SDS011;30830;53.704;10.004;2024-03-08T04:08:49;21.60;;;13.50;;
45065;SDS011;30830;53.704;10.004;2024-03-08T04:11:14;19.67;;;12.35;;
45065;SDS011;30830;53.704;10.004;2024-03-08T04:13:41;19.65;;;11.50;;
45065;SDS011;30830;53.704;10.004;2024-03-08T04:16:07;20.90;;;12.88;;
45065;SDS011;30830;53.704;10.004;2024-03-08T04:18:34;22.25;;;12.75;;
45065;SDS011;30830;53.704;10.004;2024-03-08T04:21:00;21.13;;;12.63;;
45065;SDS011;30830;53.704;10.004;2024-03-08T04:23:27;18.38;;;11.80;;
45065;SDS011;30830;53.704;10.004;2024-03-08T04:25:53;19.63;;;11.98;;
45065;SDS011;30830;53.704;10.004;2024-03-08T04:28:19;20.67;;;12.35;;
45065;SDS011;30830;53.704;10.004;2024-03-08T04:30:44;21.52;;;11.98;;
45065;SDS011;30830;53.704;10.004;2024-03-08T04:33:11;22.67;;;12.23;;
45065;SDS011;30830;53.704;10.004;2024-03-08T04:35:37;20.25;;;11.70;;
45065;SDS011;30830;53.704;10.004;2024-03-08T04:38:02;19.05;;;12.40;;
45065;SDS011;30830;53.704;10.004;2024-03-08T04:40:30;24.27;;;12.77;;
45065;SDS011;30830;53.704;10.004;2024-03-08T04:42:56;22.35;;;12.73;;
45065;SDS011;30830;53.704;10.004;2024-03-08T04:45:23;23.58;;;12.90;;
45065;SDS011;30830;53.704;10.004;2024-03-08T04:47:50;23.50;;;12.38;;
45065;SDS011;30830;53.704;10.004;2024-03-08T04:50:17;22.20;;;13.50;;
45065;SDS011;30830;53.704;10.004;2024-03-08T04:52:43;18.60;;;11.32;;
45065;SDS011;30830;53.704;10.004;2024-03-08T04:55:08;19.63;;;12.30;;
45065;SDS011;30830;53.704;10.004;2024-03-08T04:57:34;21.48;;;13.25;;
45065;SDS011;30830;53.704;10.004;2024-03-08T05:00:00;20.33;;;12.23;;
45065;SDS011;30830;53.704;10.004;2024-03-08T05:02:35;25.27;;;12.95;;
45065;SDS011;30830;53.704;10.004;2024-03-08T05:05:01;18.92;;;12.80;;
45065;SDS011;30830;53.704;10.004;2024-03-08T05:07:27;21.63;;;13.25;;
45065;SDS011;30830;53.704;10.004;2024-03-08T05:09:52;22.60;;;13.98;;
45065;SDS011;30830;53.704;10.004;2024-03-08T05:12:18;23.05;;;15.13;;
45065;SDS011;30830;53.704;10.004;2024-03-08T05:14:45;27.48;;;14.73;;
45065;SDS011;30830;53.704;10.004;2024-03-08T05:17:14;26.25;;;14.43;;
45065;SDS011;30830;53.704;10.004;2024-03-08T05:19:40;27.42;;;15.15;;
45065;SDS011;30830;53.704;10.004;2024-03-08T05:22:05;26.52;;;14.75;;
45065;SDS011;30830;53.704;10.004;2024-03-08T05:24:31;29.63;;;16.90;;
45065;SDS011;30830;53.704;10.004;2024-03-08T05:26:56;27.58;;;14.75;;
45065;SDS011;30830;53.704;10.004;2024-03-08T05:29:22;25.67;;;15.57;;
45065;SDS011;30830;53.704;10.004;2024-03-08T05:31:49;28.00;;;16.00;;
45065;SDS011;30830;53.704;10.004;2024-03-08T05:34:17;29.38;;;15.20;;
45065;SDS011;30830;53.704;10.004;2024-03-08T05:36:44;28.10;;;15.48;;
45065;SDS011;30830;53.704;10.004;2024-03-08T05:39:14;30.27;;;14.43;;
45065;SDS011;30830;53.704;10.004;2024-03-08T05:41:40;28.23;;;16.40;;
45065;SDS011;30830;53.704;10.004;2024-03-08T05:44:06;24.75;;;15.05;;
45065;SDS011;30830;53.704;10.004;2024-03-08T05:46:32;29.77;;;15.52;;
45065;SDS011;30830;53.704;10.004;2024-03-08T05:48:58;31.75;;;16.73;;
45065;SDS011;30830;53.704;10.004;2024-03-08T05:51:24;26.60;;;14.68;;
45065;SDS011;30830;53.704;10.004;2024-03-08T05:53:53;23.83;;;13.70;;
45065;SDS011;30830;53.704;10.004;2024-03-08T05:56:20;29.13;;;15.52;;
45065;SDS011;30830;53.704;10.004;2024-03-08T05:58:48;34.90;;;17.02;;
45065;SDS011;30830;53.704;10.004;2024-03-08T06:01:15;26.85;;;16.40;;
45065;SDS011;30830;53.704;10.004;2024-03-08T06:03:40;26.85;;;15.63;;
45065;SDS011;30830;53.704;10.004;2024-03-08T06:06:11;28.50;;;14.40;;
45065;SDS011;30830;53.704;10.004;2024-03-08T06:08:37;26.35;;;15.45;;
45065;SDS011;30830;53.704;10.004;2024-03-08T06:11:03;32.28;;;15.73;;
45065;SDS011;30830;53.704;10.004;2024-03-08T06:13:31;27.63;;;15.43;;
45065;SDS011;30830;53.704;10.004;2024-03-08T06:15:57;29.13;;;15.55;;
45065;SDS011;30830;53.704;10.004;2024-03-08T06:18:22;26.48;;;15.48;;
45065;SDS011;30830;53.704;10.004;2024-03-08T06:20:48;30.45;;;16.13;;
45065;SDS011;30830;53.704;10.004;2024-03-08T06:23:13;30.33;;;15.93;;
45065;SDS011;30830;53.704;10.004;2024-03-08T06:25:45;24.50;;;15.57;;
45065;SDS011;30830;53.704;10.004;2024-03-08T06:28:11;27.60;;;16.17;;
45065;SDS011;30830;53.704;10.004;2024-03-08T06:30:36;29.35;;;15.38;;
45065;SDS011;30830;53.704;10.004;2024-03-08T06:33:02;28.38;;;15.73;;
45065;SDS011;30830;53.704;10.004;2024-03-08T06:35:27;26.60;;;17.38;;
45065;SDS011;30830;53.704;10.004;2024-03-08T06:37:53;28.67;;;17.95;;
45065;SDS011;30830;53.704;10.004;2024-03-08T06:40:19;32.72;;;16.77;;
45065;SDS011;30830;53.704;10.004;2024-03-08T06:42:44;27.35;;;16.48;;
45065;SDS011;30830;53.704;10.004;2024-03-08T06:45:10;25.08;;;14.82;;
45065;SDS011;30830;53.704;10.004;2024-03-08T06:47:37;30.67;;;17.52;;
45065;SDS011;30830;53.704;10.004;2024-03-08T06:50:03;30.80;;;16.40;;
45065;SDS011;30830;53.704;10.004;2024-03-08T06:52:29;29.25;;;17.15;;
45065;SDS011;30830;53.704;10.004;2024-03-08T06:54:54;30.58;;;18.80;;
45065;SDS011;30830;53.704;10.004;2024-03-08T06:57:22;26.77;;;16.35;;
45065;SDS011;30830;53.704;10.004;2024-03-08T06:59:48;27.80;;;16.10;;
45065;SDS011;30830;53.704;10.004;2024-03-08T07:02:14;32.90;;;16.30;;
45065;SDS011;30830;53.704;10.004;2024-03-08T07:04:39;28.30;;;17.27;;
45065;SDS011;30830;53.704;10.004;2024-03-08T07:07:05;31.85;;;17.88;;
45065;SDS011;30830;53.704;10.004;2024-03-08T07:09:34;30.48;;;17.15;;
45065;SDS011;30830;53.704;10.004;2024-03-08T07:12:00;30.88;;;17.60;;
45065;SDS011;30830;53.704;10.004;2024-03-08T07:14:26;29.27;;;16.73;;
45065;SDS011;30830;53.704;10.004;2024-03-08T07:16:52;28.88;;;17.13;;
45065;SDS011;30830;53.704;10.004;2024-03-08T07:19:18;30.23;;;17.27;;
45065;SDS011;30830;53.704;10.004;2024-03-08T07:21:44;27.75;;;16.50;;
45065;SDS011;30830;53.704;10.004;2024-03-08T07:24:10;34.60;;;17.77;;
45065;SDS011;30830;53.704;10.004;2024-03-08T07:26:41;29.08;;;16.35;;
45065;SDS011;30830;53.704;10.004;2024-03-08T07:29:14;29.25;;;17.55;;
45065;SDS011;30830;53.704;10.004;2024-03-08T07:31:40;30.15;;;17.23;;
45065;SDS011;30830;53.704;10.004;2024-03-08T07:34:24;29.63;;;17.02;;
45065;SDS011;30830;53.704;10.004;2024-03-08T07:36:50;30.38;;;17.80;;
45065;SDS011;30830;53.704;10.004;2024-03-08T07:39:16;32.40;;;17.65;;
45065;SDS011;30830;53.704;10.004;2024-03-08T07:41:41;28.88;;;16.98;;
45065;SDS011;30830;53.704;10.004;2024-03-08T07:44:07;30.33;;;16.77;;
45065;SDS011;30830;53.704;10.004;2024-03-08T07:46:32;31.00;;;17.02;;
45065;SDS011;30830;53.704;10.004;2024-03-08T07:49:02;29.95;;;17.05;;
45065;SDS011;30830;53.704;10.004;2024-03-08T07:51:28;30.40;;;17.02;;
45065;SDS011;30830;53.704;10.004;2024-03-08T07:53:53;31.05;;;17.98;;
45065;SDS011;30830;53.704;10.004;2024-03-08T07:56:20;31.25;;;18.60;;
45065;SDS011;30830;53.704;10.004;2024-03-08T07:58:46;27.90;;;17.30;;
45065;SDS011;30830;53.704;10.004;2024-03-08T08:01:19;34.28;;;18.88;;
45065;SDS011;30830;53.704;10.004;2024-03-08T08:03:45;30.67;;;18.45;;
45065;SDS011;30830;53.704;10.004;2024-03-08T08:06:13;31.40;;;17.83;;
45065;SDS011;30830;53.704;10.004;2024-03-08T08:08:44;34.20;;;18.23;;
45065;SDS011;30830;53.704;10.004;2024-03-08T08:11:10;29.13;;;17.17;;
45065;SDS011;30830;53.704;10.004;2024-03-08T08:13:40;31.30;;;18.20;;
45065;SDS011;30830;53.704;10.004;2024-03-08T08:16:08;29.98;;;17.63;;
45065;SDS011;30830;53.704;10.004;2024-03-08T08:18:34;30.35;;;16.00;;
45065;SDS011;30830;53.704;10.004;2024-03-08T08:21:00;30.25;;;17.08;;
45065;SDS011;30830;53.704;10.004;2024-03-08T08:23:26;25.83;;;16.05;;
45065;SDS011;30830;53.704;10.004;2024-03-08T08:25:51;28.90;;;17.23;;
45065;SDS011;30830;53.704;10.004;2024-03-08T08:28:17;29.25;;;16.48;;
45065;SDS011;30830;53.704;10.004;2024-03-08T08:30:43;30.13;;;16.85;;
45065;SDS011;30830;53.704;10.004;2024-03-08T08:33:09;24.63;;;15.43;;
45065;SDS011;30830;53.704;10.004;2024-03-08T08:35:36;27.88;;;16.50;;
45065;SDS011;30830;53.704;10.004;2024-03-08T08:38:05;23.95;;;15.23;;
45065;SDS011;30830;53.704;10.004;2024-03-08T08:40:32;27.85;;;15.57;;
45065;SDS011;30830;53.704;10.004;2024-03-08T08:42:58;29.80;;;16.15;;
45065;SDS011;30830;53.704;10.004;2024-03-08T08:45:24;25.10;;;14.98;;
45065;SDS011;30830;53.704;10.004;2024-03-08T08:47:50;24.17;;;15.07;;
45065;SDS011;30830;53.704;10.004;2024-03-08T08:50:16;26.00;;;15.20;;
45065;SDS011;30830;53.704;10.004;2024-03-08T08:52:47;22.02;;;14.23;;
45065;SDS011;30830;53.704;10.004;2024-03-08T08:55:14;19.92;;;13.85;;
45065;SDS011;30830;53.704;10.004;2024-03-08T08:57:40;23.83;;;14.27;;
45065;SDS011;30830;53.704;10.004;2024-03-08T09:00:06;24.05;;;15.50;;
45065;SDS011;30830;53.704;10.004;2024-03-08T09:02:35;24.73;;;15.32;;
45065;SDS011;30830;53.704;10.004;2024-03-08T09:05:02;22.73;;;15.43;;
45065;SDS011;30830;53.704;10.004;2024-03-08T09:07:28;27.95;;;15.70;;
45065;SDS011;30830;53.704;10.004;2024-03-08T09:09:54;23.38;;;14.77;;
45065;SDS011;30830;53.704;10.004;2024-03-08T09:12:23;21.38;;;13.65;;
45065;SDS011;30830;53.704;10.004;2024-03-08T09:14:49;25.50;;;14.18;;
45065;SDS011;30830;53.704;10.004;2024-03-08T09:17:14;23.27;;;13.52;;
45065;SDS011;30830;53.704;10.004;2024-03-08T09:19:45;20.45;;;13.57;;
45065;SDS011;30830;53.704;10.004;2024-03-08T09:22:12;22.10;;;13.88;;
45065;SDS011;30830;53.704;10.004;2024-03-08T09:24:37;22.38;;;12.80;;
45065;SDS011;30830;53.704;10.004;2024-03-08T09:27:03;21.73;;;13.82;;
45065;SDS011;30830;53.704;10.004;2024-03-08T09:29:29;23.38;;;14.05;;
45065;SDS011;30830;53.704;10.004;2024-03-08T09:31:54;23.02;;;14.20;;
45065;SDS011;30830;53.704;10.004;2024-03-08T09:34:20;18.10;;;11.95;;
45065;SDS011;30830;53.704;10.004;2024-03-08T09:36:46;23.40;;;14.20;;
45065;SDS011;30830;53.704;10.004;2024-03-08T09:39:12;23.10;;;14.10;;
45065;SDS011;30830;53.704;10.004;2024-03-08T09:41:42;21.23;;;13.25;;
45065;SDS011;30830;53.704;10.004;2024-03-08T09:44:08;18.20;;;12.45;;
45065;SDS011;30830;53.704;10.004;2024-03-08T09:46:34;18.73;;;12.88;;
45065;SDS011;30830;53.704;10.004;2024-03-08T09:49:00;25.80;;;14.88;;
45065;SDS011;30830;53.704;10.004;2024-03-08T09:51:30;22.00;;;12.65;;
45065;SDS011;30830;53.704;10.004;2024-03-08T09:53:59;21.48;;;13.32;;
45065;SDS011;30830;53.704;10.004;2024-03-08T09:56:25;21.48;;;13.88;;
45065;SDS011;30830;53.704;10.004;2024-03-08T09:58:52;22.60;;;13.40;;
45065;SDS011;30830;53.704;10.004;2024-03-08T10:01:36;21.15;;;12.20;;
45065;SDS011;30830;53.704;10.004;2024-03-08T10:04:03;22.80;;;14.05;;
45065;SDS011;30830;53.704;10.004;2024-03-08T10:06:29;21.35;;;13.82;;
45065;SDS011;30830;53.704;10.004;2024-03-08T10:08:56;22.45;;;14.93;;
45065;SDS011;30830;53.704;10.004;2024-03-08T10:11:22;21.38;;;13.20;;
45065;SDS011;30830;53.704;10.004;2024-03-08T10:13:49;23.42;;;12.98;;
45065;SDS011;30830;53.704;10.004;2024-03-08T10:16:15;19.88;;;12.98;;
45065;SDS011;30830;53.704;10.004;2024-03-08T10:18:42;23.05;;;14.57;;
45065;SDS011;30830;53.704;10.004;2024-03-08T10:21:10;21.63;;;13.50;;
45065;SDS011;30830;53.704;10.004;2024-03-08T10:23:36;19.95;;;12.77;;
45065;SDS011;30830;53.704;10.004;2024-03-08T10:26:17;19.48;;;12.75;;
45065;SDS011;30830;53.704;10.004;2024-03-08T10:28:46;20.02;;;12.73;;
45065;SDS011;30830;53.704;10.004;2024-03-08T10:31:13;22.50;;;13.95;;
45065;SDS011;30830;53.704;10.004;2024-03-08T10:33:40;21.13;;;12.98;;
45065;SDS011;30830;53.704;10.004;2024-03-08T10:36:09;19.17;;;12.57;;
45065;SDS011;30830;53.704;10.004;2024-03-08T10:38:39;24.45;;;14.18;;
45065;SDS011;30830;53.704;10.004;2024-03-08T10:41:06;17.95;;;12.98;;
45065;SDS011;30830;53.704;10.004;2024-03-08T10:43:48;22.88;;;13.98;;
45065;SDS011;30830;53.704;10.004;2024-03-08T10:49:25;19.77;;;12.57;;
45065;SDS011;30830;53.704;10.004;2024-03-08T10:51:55;21.77;;;13.70;;
45065;SDS011;30830;53.704;10.004;2024-03-08T10:54:22;18.75;;;13.30;;
45065;SDS011;30830;53.704;10.004;2024-03-08T10:56:49;21.95;;;15.00;;
45065;SDS011;30830;53.704;10.004;2024-03-08T10:59:15;20.73;;;14.50;;
45065;SDS011;30830;53.704;10.004;2024-03-08T11:01:42;22.55;;;14.30;;
45065;SDS011;30830;53.704;10.004;2024-03-08T11:04:07;21.55;;;13.50;;
45065;SDS011;30830;53.704;10.004;2024-03-08T11:09:02;23.92;;;13.00;;
45065;SDS011;30830;53.704;10.004;2024-03-08T11:11:32;18.33;;;12.35;;
45065;SDS011;30830;53.704;10.004;2024-03-08T11:14:02;19.90;;;12.65;;
45065;SDS011;30830;53.704;10.004;2024-03-08T11:18:59;20.77;;;13.65;;
45065;SDS011;30830;53.704;10.004;2024-03-08T11:21:29;22.02;;;13.63;;
45065;SDS011;30830;53.704;10.004;2024-03-08T11:24:01;19.17;;;12.55;;
45065;SDS011;30830;53.704;10.004;2024-03-08T11:26:30;21.45;;;13.10;;
45065;SDS011;30830;53.704;10.004;2024-03-08T11:29:32;18.95;;;11.35;;
45065;SDS011;30830;53.704;10.004;2024-03-08T11:34:37;16.98;;;11.07;;
45065;SDS011;30830;53.704;10.004;2024-03-08T11:37:18;17.75;;;10.93;;
45065;SDS011;30830;53.704;10.004;2024-03-08T11:39:52;16.55;;;10.68;;
45065;SDS011;30830;53.704;10.004;2024-03-08T11:42:24;15.23;;;10.50;;
45065;SDS011;30830;53.704;10.004;2024-03-08T11:44:51;17.40;;;10.38;;
45065;SDS011;30830;53.704;10.004;2024-03-08T11:47:17;15.90;;;11.13;;
45065;SDS011;30830;53.704;10.004;2024-03-08T11:49:44;18.13;;;11.35;;
45065;SDS011;30830;53.704;10.004;2024-03-08T11:52:17;17.33;;;12.00;;
45065;SDS011;30830;53.704;10.004;2024-03-08T11:54:52;15.80;;;9.90;;
45065;SDS011;30830;53.704;10.004;2024-03-08T11:57:19;15.70;;;10.70;;
45065;SDS011;30830;53.704;10.004;2024-03-08T11:59:55;18.08;;;10.98;;
45065;SDS011;30830;53.704;10.004;2024-03-08T12:02:31;14.07;;;9.75;;
45065;SDS011;30830;53.704;10.004;2024-03-08T12:04:57;17.63;;;11.77;;
45065;SDS011;30830;53.704;10.004;2024-03-08T12:07:28;15.13;;;11.20;;
45065;SDS011;30830;53.704;10.004;2024-03-08T12:10:14;15.65;;;10.98;;
45065;SDS011;30830;53.704;10.004;2024-03-08T12:12:44;16.17;;;10.55;;
45065;SDS011;30830;53.704;10.004;2024-03-08T12:15:20;17.35;;;10.85;;
45065;SDS011;30830;53.704;10.004;2024-03-08T12:17:48;15.63;;;11.32;;
45065;SDS011;30830;53.704;10.004;2024-03-08T12:22:56;16.75;;;11.15;;
45065;SDS011;30830;53.704;10.004;2024-03-08T12:25:32;17.27;;;11.60;;
45065;SDS011;30830;53.704;10.004;2024-03-08T12:28:08;19.63;;;11.52;;
45065;SDS011;30830;53.704;10.004;2024-03-08T12:30:48;15.85;;;10.27;;
45065;SDS011;30830;53.704;10.004;2024-03-08T12:33:16;16.25;;;10.50;;
45065;SDS011;30830;53.704;10.004;2024-03-08T12:35:49;19.02;;;11.70;;
45065;SDS011;30830;53.704;10.004;2024-03-08T12:38:18;15.20;;;10.82;;
45065;SDS011;30830;53.704;10.004;2024-03-08T12:40:49;16.23;;;11.43;;
45065;SDS011;30830;53.704;10.004;2024-03-08T12:43:14;17.48;;;11.77;;
45065;SDS011;30830;53.704;10.004;2024-03-08T12:45:40;16.95;;;11.02;;
45065;SDS011;30830;53.704;10.004;2024-03-08T12:48:12;17.02;;;10.93;;
45065;SDS011;30830;53.704;10.004;2024-03-08T12:50:40;16.33;;;10.68;;
45065;SDS011;30830;53.704;10.004;2024-03-08T12:53:08;15.60;;;10.55;;
45065;SDS011;30830;53.704;10.004;2024-03-08T12:55:34;18.05;;;11.85;;
45065;SDS011;30830;53.704;10.004;2024-03-08T12:57:59;18.88;;;11.48;;
45065;SDS011;30830;53.704;10.004;2024-03-08T13:00:25;15.88;;;10.25;;
45065;SDS011;30830;53.704;10.004;2024-03-08T13:02:53;17.00;;;11.25;;
45065;SDS011;30830;53.704;10.004;2024-03-08T13:05:19;14.27;;;9.75;;
45065;SDS011;30830;53.704;10.004;2024-03-08T13:07:45;17.73;;;11.05;;
45065;SDS011;30830;53.704;10.004;2024-03-08T13:10:14;17.83;;;11.15;;
45065;SDS011;30830;53.704;10.004;2024-03-08T13:12:45;18.77;;;11.75;;
45065;SDS011;30830;53.704;10.004;2024-03-08T13:15:13;18.63;;;11.70;;
45065;SDS011;30830;53.704;10.004;2024-03-08T13:17:45;16.15;;;9.77;;
45065;SDS011;30830;53.704;10.004;2024-03-08T13:20:13;15.13;;;10.68;;
45065;SDS011;30830;53.704;10.004;2024-03-08T13:22:42;17.08;;;10.73;;
45065;SDS011;30830;53.704;10.004;2024-03-08T13:25:08;16.58;;;10.82;;
45065;SDS011;30830;53.704;10.004;2024-03-08T13:27:38;17.10;;;10.90;;
45065;SDS011;30830;53.704;10.004;2024-03-08T13:30:06;14.70;;;10.32;;
45065;SDS011;30830;53.704;10.004;2024-03-08T13:32:32;15.68;;;10.63;;
45065;SDS011;30830;53.704;10.004;2024-03-08T13:34:57;14.82;;;10.73;;
45065;SDS011;30830;53.704;10.004;2024-03-08T13:37:23;18.95;;;10.60;;
45065;SDS011;30830;53.704;10.004;2024-03-08T13:39:49;13.70;;;9.30;;
45065;SDS011;30830;53.704;10.004;2024-03-08T13:42:14;15.38;;;10.45;;
45065;SDS011;30830;53.704;10.004;2024-03-08T13:44:47;15.27;;;10.05;;
45065;SDS011;30830;53.704;10.004;2024-03-08T13:47:16;15.57;;;10.48;;
45065;SDS011;30830;53.704;10.004;2024-03-08T13:49:45;15.15;;;9.80;;
45065;SDS011;30830;53.704;10.004;2024-03-08T13:52:11;17.67;;;10.10;;
45065;SDS011;30830;53.704;10.004;2024-03-08T13:54:41;16.23;;;10.73;;
45065;SDS011;30830;53.704;10.004;2024-03-08T13:57:08;16.77;;;9.77;;
45065;SDS011;30830;53.704;10.004;2024-03-08T13:59:33;16.08;;;9.82;;
45065;SDS011;30830;53.704;10.004;2024-03-08T14:02:00;15.35;;;10.05;;
45065;SDS011;30830;53.704;10.004;2024-03-08T14:04:27;16.95;;;10.27;;
45065;SDS011;30830;53.704;10.004;2024-03-08T14:06:53;14.20;;;9.18;;
45065;SDS011;30830;53.704;10.004;2024-03-08T14:09:26;15.20;;;9.70;;
45065;SDS011;30830;53.704;10.004;2024-03-08T14:11:54;17.08;;;10.50;;
45065;SDS011;30830;53.704;10.004;2024-03-08T14:14:23;15.90;;;10.07;;
45065;SDS011;30830;53.704;10.004;2024-03-08T14:16:49;16.60;;;10.70;;
45065;SDS011;30830;53.704;10.004;2024-03-08T14:19:19;15.32;;;9.48;;
45065;SDS011;30830;53.704;10.004;2024-03-08T14:21:45;14.68;;;9.90;;
45065;SDS011;30830;53.704;10.004;2024-03-08T14:24:12;13.85;;;9.23;;